createdAt,value
2023-05-14T00:01:14.143Z,85.70
2023-05-14T00:04:02.068Z,86.00
2023-05-14T00:06:47.424Z,86.00
2023-05-14T00:09:33.311Z,86.00
2023-05-14T00:12:18.791Z,86.00
2023-05-14T00:15:04.754Z,86.30
2023-05-14T00:17:49.928Z,86.30
2023-05-14T00:20:35.659Z,86.40
2023-05-14T00:23:22.784Z,86.20
2023-05-14T00:26:11.467Z,86.30
2023-05-14T00:28:57.701Z,86.30
2023-05-14T00:34:28.733Z,86.60
2023-05-14T00:37:16.119Z,86.80
2023-05-14T00:40:06.868Z,87.10
2023-05-14T00:42:52.837Z,86.90
2023-05-14T00:45:40.542Z,86.80
2023-05-14T00:48:26.600Z,87.00
2023-05-14T00:51:12.155Z,86.90
2023-05-14T00:53:57.774Z,87.20
2023-05-14T00:56:47.197Z,87.30
2023-05-14T00:59:33.227Z,87.40
2023-05-14T01:02:18.928Z,87.10
2023-05-14T01:05:05.773Z,87.20
2023-05-14T01:08:09.790Z,87.20
2023-05-14T01:11:28.515Z,87.20
2023-05-14T01:14:46.471Z,87.20
2023-05-14T01:17:37.435Z,87.30
2023-05-14T01:20:26.057Z,87.60
2023-05-14T01:23:12.926Z,87.80
2023-05-14T01:25:58.402Z,88.00
2023-05-14T01:28:44.449Z,88.20
2023-05-14T01:31:32.245Z,88.50
2023-05-14T01:34:22.868Z,88.50
2023-05-14T01:37:10.137Z,88.70
2023-05-14T01:39:56.729Z,89.00
2023-05-14T01:42:43.868Z,89.10
2023-05-14T01:45:30.884Z,89.20
2023-05-14T01:48:16.653Z,89.40
2023-05-14T01:51:02.765Z,89.50
2023-05-14T01:53:48.420Z,89.60
2023-05-14T01:56:33.772Z,89.60
2023-05-14T01:59:18.909Z,89.60
2023-05-14T02:02:05.843Z,89.40
2023-05-14T02:04:55.523Z,89.50
2023-05-14T02:07:45.960Z,89.60
2023-05-14T02:10:31.525Z,89.90
2023-05-14T02:13:17.057Z,89.80
2023-05-14T02:16:02.708Z,89.70
2023-05-14T02:18:49.849Z,90.00
2023-05-14T02:21:35.509Z,90.00
2023-05-14T02:24:21.490Z,90.10
2023-05-14T02:27:06.890Z,90.10
2023-05-14T02:29:53.182Z,90.20
2023-05-14T02:32:41.929Z,90.20
2023-05-14T02:35:29.494Z,90.20
2023-05-14T02:38:15.125Z,90.30
2023-05-14T02:41:00.308Z,90.20
2023-05-14T02:43:46.441Z,90.30
2023-05-14T02:46:32.981Z,90.40
2023-05-14T02:49:20.291Z,90.40
2023-05-14T02:52:06.305Z,90.50
2023-05-14T02:54:52.119Z,90.50
2023-05-14T02:57:37.560Z,90.60
2023-05-14T03:00:23.175Z,90.70
2023-05-14T03:03:09.192Z,90.80
2023-05-14T03:05:55.920Z,90.90
2023-05-14T03:08:42.277Z,91.00
2023-05-14T03:11:35.090Z,91.00
2023-05-14T03:14:20.297Z,91.10
2023-05-14T03:17:05.937Z,91.10
2023-05-14T03:19:51.316Z,91.20
2023-05-14T03:22:37.840Z,91.40
2023-05-14T03:25:23.249Z,91.60
2023-05-14T03:28:11.894Z,91.70
2023-05-14T03:31:00.013Z,91.90
2023-05-14T03:33:47.554Z,92.00
2023-05-14T03:36:36.253Z,92.10
2023-05-14T03:39:23.178Z,92.10
2023-05-14T03:42:08.679Z,92.20
2023-05-14T03:44:55.542Z,92.20
2023-05-14T03:47:41.533Z,92.40
2023-05-14T03:50:28.484Z,92.50
2023-05-14T03:53:14.897Z,92.50
2023-05-14T03:56:00.991Z,92.60
2023-05-14T03:58:46.210Z,92.80
2023-05-14T04:01:35.785Z,92.80
2023-05-14T04:04:24.219Z,92.90
2023-05-14T04:07:16.718Z,92.90
2023-05-14T04:10:04.681Z,93.00
2023-05-14T04:12:53.074Z,93.10
2023-05-14T04:15:39.491Z,93.20
2023-05-14T04:18:25.287Z,93.20
2023-05-14T04:21:16.371Z,93.20
2023-05-14T04:24:04.889Z,93.30
2023-05-14T04:26:54.318Z,93.40
2023-05-14T04:29:43.851Z,93.50
2023-05-14T04:32:30.445Z,93.50
2023-05-14T04:35:17.612Z,93.40
2023-05-14T04:38:04.834Z,93.50
2023-05-14T04:40:50.536Z,93.50
2023-05-14T04:43:37.269Z,93.60
2023-05-14T04:46:23.378Z,93.60
2023-05-14T04:49:09.074Z,93.70
2023-05-14T04:51:54.741Z,93.80
2023-05-14T04:54:40.725Z,93.70
2023-05-14T04:57:29.308Z,93.80
2023-05-14T05:00:18.250Z,93.80
2023-05-14T05:03:04.935Z,93.80
2023-05-14T05:05:52.344Z,93.90
2023-05-14T05:08:38.598Z,93.90
2023-05-14T05:11:24.028Z,93.90
2023-05-14T05:14:10.637Z,94.00
2023-05-14T05:16:56.278Z,94.00
2023-05-14T05:19:44.118Z,94.00
2023-05-14T05:22:30.172Z,94.00
2023-05-14T05:25:15.702Z,93.90
2023-05-14T05:28:01.302Z,93.80
2023-05-14T05:30:47.541Z,93.90
2023-05-14T05:33:33.745Z,93.80
2023-05-14T05:36:20.973Z,93.80
2023-05-14T05:39:06.617Z,93.80
2023-05-14T05:41:59.580Z,93.80
2023-05-14T05:44:46.472Z,94.10
2023-05-14T05:47:32.142Z,93.80
2023-05-14T05:50:19.770Z,94.00
2023-05-14T05:53:05.560Z,94.10
2023-05-14T05:55:51.748Z,94.30
2023-05-14T05:58:39.224Z,94.40
2023-05-14T06:01:25.194Z,94.90
2023-05-14T06:04:13.846Z,94.60
2023-05-14T06:07:00.298Z,95.10
2023-05-14T06:09:45.927Z,95.10
2023-05-14T06:12:32.396Z,93.80
2023-05-14T06:15:18.478Z,93.30
2023-05-14T06:18:04.101Z,93.30
2023-05-14T06:20:49.400Z,93.10
2023-05-14T06:23:37.573Z,92.90
2023-05-14T06:26:23.792Z,92.70
2023-05-14T06:29:11.968Z,92.60
2023-05-14T06:32:01.684Z,92.00
2023-05-14T06:34:47.692Z,92.00
2023-05-14T06:37:33.286Z,91.20
2023-05-14T06:40:20.428Z,91.00
2023-05-14T06:43:06.684Z,90.90
2023-05-14T06:45:52.553Z,90.70
2023-05-14T06:48:37.922Z,90.60
2023-05-14T06:51:23.280Z,90.10
2023-05-14T06:54:11.675Z,89.50
2023-05-14T06:56:57.413Z,88.40
2023-05-14T06:59:47.217Z,88.60
2023-05-14T07:02:35.282Z,89.10
2023-05-14T07:05:24.012Z,88.00
2023-05-14T07:08:09.219Z,88.50
2023-05-14T07:10:54.532Z,88.00
2023-05-14T07:13:40.881Z,86.20
2023-05-14T07:16:26.972Z,85.20
2023-05-14T07:19:13.193Z,85.20
2023-05-14T07:21:58.877Z,84.40
2023-05-14T07:24:44.524Z,83.60
2023-05-14T07:27:30.037Z,83.20
2023-05-14T07:30:15.569Z,83.00
2023-05-14T07:33:01.470Z,81.60
2023-05-14T07:35:47.044Z,79.80
2023-05-14T07:38:32.703Z,79.30
2023-05-14T07:41:18.726Z,79.00
2023-05-14T07:44:05.039Z,80.00
2023-05-14T07:46:50.787Z,79.90
2023-05-14T07:49:36.130Z,80.30
2023-05-14T07:52:21.540Z,80.80
2023-05-14T07:55:07.401Z,81.50
2023-05-14T07:58:15.203Z,81.60
2023-05-14T08:00:58.685Z,81.10
2023-05-14T08:03:44.244Z,81.20
2023-05-14T08:06:29.575Z,81.30
2023-05-14T08:09:15.299Z,80.50
2023-05-14T08:12:03.646Z,80.40
2023-05-14T08:14:49.400Z,81.40
2023-05-14T08:17:34.940Z,81.30
2023-05-14T08:20:20.503Z,80.40
2023-05-14T08:23:07.582Z,80.40
2023-05-14T08:25:52.889Z,79.90
2023-05-14T08:28:38.009Z,79.90
2023-05-14T08:31:23.655Z,78.20
2023-05-14T08:34:09.256Z,77.90
2023-05-14T08:36:57.505Z,78.40
2023-05-14T08:39:42.644Z,77.40
2023-05-14T08:42:29.246Z,76.20
2023-05-14T08:45:25.639Z,77.10
2023-05-14T08:48:18.458Z,76.20
2023-05-14T08:51:04.009Z,76.90
2023-05-14T08:53:49.359Z,76.10
2023-05-14T08:56:35.890Z,76.80
2023-05-14T08:59:21.384Z,76.00
2023-05-14T09:02:08.689Z,74.80
2023-05-14T09:04:57.067Z,74.00
2023-05-14T09:07:42.552Z,74.40
2023-05-14T09:10:27.840Z,74.20
2023-05-14T09:13:13.539Z,74.70
2023-05-14T09:16:00.050Z,74.00
2023-05-14T09:18:45.914Z,74.20
2023-05-14T09:21:33.537Z,72.80
2023-05-14T09:24:24.119Z,72.20
2023-05-14T09:27:15.677Z,72.20
2023-05-14T09:30:12.550Z,73.20
2023-05-14T09:32:57.621Z,73.70
2023-05-14T09:35:43.410Z,73.00
2023-05-14T09:38:33.697Z,73.80
2023-05-14T09:41:19.248Z,74.60
2023-05-14T09:44:06.680Z,73.70
2023-05-14T09:46:53.708Z,71.70
2023-05-14T09:49:40.168Z,72.00
2023-05-14T09:52:25.963Z,73.00
2023-05-14T09:55:11.347Z,71.70
2023-05-14T09:57:56.593Z,72.40
2023-05-14T10:00:46.240Z,71.50
2023-05-14T10:03:32.399Z,71.70
2023-05-14T10:06:19.216Z,71.90
2023-05-14T10:09:09.000Z,71.10
2023-05-14T10:11:59.780Z,71.10
2023-05-14T10:14:53.333Z,68.40
2023-05-14T10:17:43.246Z,68.90
2023-05-14T10:20:31.822Z,68.30
2023-05-14T10:23:18.159Z,67.50
2023-05-14T10:26:04.250Z,66.90
2023-05-14T10:28:49.640Z,65.40
2023-05-14T10:31:55.482Z,66.80
2023-05-14T10:34:44.077Z,66.00
2023-05-14T10:37:30.813Z,63.30
2023-05-14T10:40:18.869Z,62.80
2023-05-14T10:43:04.881Z,63.20
2023-05-14T10:45:50.494Z,63.20
2023-05-14T10:48:39.071Z,61.50
2023-05-14T10:51:27.003Z,60.50
2023-05-14T10:54:12.792Z,60.70
2023-05-14T10:56:59.838Z,60.30
2023-05-14T10:59:47.464Z,58.40
2023-05-14T11:02:37.851Z,57.50
2023-05-14T11:05:23.809Z,57.40
2023-05-14T11:08:10.308Z,58.40
2023-05-14T11:10:56.158Z,57.10
2023-05-14T11:13:42.592Z,54.70
2023-05-14T11:16:32.315Z,55.80
2023-05-14T11:19:22.057Z,54.60
2023-05-14T11:22:07.984Z,52.00
2023-05-14T11:24:54.585Z,50.20
2023-05-14T11:27:41.964Z,48.60
2023-05-14T11:30:27.371Z,44.50
2023-05-14T11:33:14.088Z,44.80
2023-05-14T11:36:01.625Z,43.50
2023-05-14T11:38:49.141Z,42.60
2023-05-14T11:41:34.896Z,40.40
2023-05-14T11:44:20.394Z,41.00
2023-05-14T11:47:06.554Z,39.40
2023-05-14T11:49:52.710Z,39.20
2023-05-14T11:52:40.252Z,38.60
2023-05-14T11:55:30.391Z,37.20
2023-05-14T11:58:17.132Z,35.20
2023-05-14T12:01:02.453Z,34.80
2023-05-14T12:03:48.184Z,36.10
2023-05-14T12:06:33.940Z,33.70
2023-05-14T12:09:20.400Z,34.90
2023-05-14T12:12:12.924Z,33.30
2023-05-14T12:15:01.610Z,32.60
2023-05-14T12:17:51.701Z,33.10
2023-05-14T12:20:37.363Z,31.50
2023-05-14T12:23:41.160Z,31.70
2023-05-14T12:26:29.648Z,30.40
2023-05-14T12:29:16.061Z,31.20
2023-05-14T12:32:04.616Z,31.50
2023-05-14T12:34:50.368Z,32.20
2023-05-14T12:37:40.030Z,32.50
2023-05-14T12:40:26.424Z,30.80
2023-05-14T12:43:11.849Z,31.30
2023-05-14T12:45:57.160Z,32.70
2023-05-14T12:48:42.592Z,34.30
2023-05-14T12:51:28.266Z,35.40
2023-05-14T12:54:15.733Z,35.70
2023-05-14T12:57:03.761Z,35.10
2023-05-14T12:59:49.460Z,34.60
2023-05-14T13:02:42.751Z,34.30
2023-05-14T13:05:28.813Z,35.30
2023-05-14T13:08:18.066Z,35.60
2023-05-14T13:11:06.397Z,37.00
2023-05-14T13:13:52.109Z,38.70
2023-05-14T13:16:37.427Z,39.00
2023-05-14T13:19:22.855Z,38.40
2023-05-14T13:22:08.420Z,37.00
2023-05-14T13:24:54.315Z,37.30
2023-05-14T13:27:39.785Z,37.60
2023-05-14T13:30:25.149Z,38.50
2023-05-14T13:33:10.543Z,38.50
2023-05-14T13:35:55.884Z,40.10
2023-05-14T13:38:41.431Z,40.30
2023-05-14T13:41:29.985Z,39.50
2023-05-14T13:44:15.215Z,39.70
2023-05-14T13:47:00.438Z,39.50
2023-05-14T13:49:45.898Z,39.70
2023-05-14T13:52:31.263Z,40.00
2023-05-14T13:55:17.285Z,38.30
2023-05-14T13:58:03.312Z,37.90
2023-05-14T14:00:50.475Z,37.80
2023-05-14T14:03:36.099Z,38.60
2023-05-14T14:06:21.493Z,38.50
2023-05-14T14:09:06.791Z,38.90
2023-05-14T14:11:52.474Z,39.70
2023-05-14T14:14:37.977Z,40.20
2023-05-14T14:17:23.590Z,41.50
2023-05-14T14:20:10.102Z,41.30
2023-05-14T14:22:56.074Z,40.60
2023-05-14T14:25:41.484Z,41.20
2023-05-14T14:28:26.855Z,40.20
2023-05-14T14:31:12.723Z,38.80
2023-05-14T14:33:58.090Z,39.10
2023-05-14T14:36:43.559Z,39.90
2023-05-14T14:39:29.006Z,40.50
2023-05-14T14:42:14.444Z,40.80
2023-05-14T14:45:00.203Z,42.40
2023-05-14T14:47:49.119Z,42.80
2023-05-14T14:50:34.368Z,41.80
2023-05-14T14:53:20.742Z,42.20
2023-05-14T14:56:06.305Z,43.30
2023-05-14T14:58:51.516Z,43.90
2023-05-14T15:01:39.637Z,43.60
2023-05-14T15:04:50.197Z,44.00
2023-05-14T15:07:35.817Z,43.70
2023-05-14T15:10:20.969Z,42.20
2023-05-14T15:13:07.063Z,42.00
2023-05-14T15:15:52.710Z,42.40
2023-05-14T15:18:38.273Z,42.80
2023-05-14T15:21:23.721Z,43.60
2023-05-14T15:24:15.476Z,45.00
2023-05-14T15:27:01.204Z,47.40
2023-05-14T15:29:46.787Z,47.10
2023-05-14T15:32:34.771Z,46.70
2023-05-14T15:35:20.206Z,45.60
2023-05-14T15:38:06.895Z,44.70
2023-05-14T15:40:52.068Z,44.90
2023-05-14T15:43:37.460Z,45.70
2023-05-14T15:46:23.955Z,44.90
2023-05-14T15:49:11.440Z,46.20
2023-05-14T15:51:57.113Z,46.90
2023-05-14T15:54:42.550Z,45.50
2023-05-14T15:57:28.046Z,45.00
2023-05-14T16:00:14.362Z,45.30
2023-05-14T16:02:59.945Z,44.70
2023-05-14T16:05:45.409Z,45.30
2023-05-14T16:08:30.806Z,45.10
2023-05-14T16:11:19.178Z,45.60
2023-05-14T16:14:04.542Z,46.30
2023-05-14T16:16:50.109Z,46.80
2023-05-14T16:19:35.629Z,47.10
2023-05-14T16:22:21.029Z,47.50
2023-05-14T16:25:06.406Z,48.50
2023-05-14T16:27:52.250Z,49.70
2023-05-14T16:30:40.271Z,50.40
2023-05-14T16:33:25.502Z,50.90
2023-05-14T16:36:11.082Z,51.60
2023-05-14T16:39:07.210Z,52.10
2023-05-14T16:41:53.687Z,53.10
2023-05-14T16:44:43.992Z,54.10
2023-05-14T16:47:29.566Z,54.90
2023-05-14T16:50:15.169Z,54.80
2023-05-14T16:53:00.816Z,54.00
2023-05-14T16:55:46.572Z,53.90
2023-05-14T16:58:31.913Z,54.20
2023-05-14T17:01:17.465Z,54.90
2023-05-14T17:04:02.800Z,54.90
2023-05-14T17:06:48.544Z,55.00
2023-05-14T17:09:33.885Z,54.50
2023-05-14T17:12:19.304Z,53.80
2023-05-14T17:15:07.263Z,54.80
2023-05-14T17:17:53.414Z,55.20
2023-05-14T17:20:39.168Z,55.20
2023-05-14T17:23:24.755Z,55.50
2023-05-14T17:26:11.954Z,55.50
2023-05-14T17:28:57.531Z,55.20
2023-05-14T17:31:45.810Z,55.20
2023-05-14T17:34:32.450Z,55.50
2023-05-14T17:37:18.100Z,55.80
2023-05-14T17:40:04.877Z,57.20
2023-05-14T17:42:50.936Z,57.80
2023-05-14T17:45:46.248Z,58.20
2023-05-14T17:48:39.219Z,58.90
2023-05-14T17:51:24.570Z,59.10
2023-05-14T17:54:09.973Z,59.70
2023-05-14T17:56:55.820Z,60.10
2023-05-14T17:59:41.319Z,59.80
2023-05-14T18:02:26.806Z,60.10
2023-05-14T18:05:37.192Z,60.20
2023-05-14T18:08:22.430Z,60.70
2023-05-14T18:11:07.807Z,61.30
2023-05-14T18:13:53.152Z,62.60
2023-05-14T18:16:38.938Z,63.10
2023-05-14T18:19:24.771Z,64.00
2023-05-14T18:22:09.786Z,64.80
2023-05-14T18:24:55.265Z,65.50
2023-05-14T18:27:44.347Z,66.10
2023-05-14T18:30:29.938Z,67.30
2023-05-14T18:33:15.212Z,68.00
2023-05-14T18:36:01.421Z,68.00
2023-05-14T18:38:46.748Z,68.10
2023-05-14T18:41:31.868Z,68.00
2023-05-14T18:44:17.279Z,68.70
2023-05-14T18:47:02.644Z,70.10
2023-05-14T18:49:50.230Z,70.50
2023-05-14T18:52:35.710Z,70.70
2023-05-14T18:55:21.091Z,71.10
2023-05-14T18:58:08.695Z,71.90
2023-05-14T19:00:54.024Z,72.40
2023-05-14T19:03:41.913Z,73.20
2023-05-14T19:06:27.608Z,74.00
2023-05-14T19:09:14.644Z,74.70
2023-05-14T19:11:59.831Z,75.40
2023-05-14T19:14:45.365Z,76.00
2023-05-14T19:17:33.893Z,75.60
2023-05-14T19:20:19.499Z,75.80
2023-05-14T19:23:05.190Z,76.30
2023-05-14T19:25:50.350Z,77.30
2023-05-14T19:28:37.819Z,78.40
2023-05-14T19:31:23.271Z,78.60
2023-05-14T19:34:08.864Z,79.00
2023-05-14T19:36:54.039Z,79.60
2023-05-14T19:39:39.425Z,79.70
2023-05-14T19:42:25.350Z,80.40
2023-05-14T19:45:11.335Z,80.70
2023-05-14T19:47:56.929Z,80.90
2023-05-14T19:50:42.115Z,81.30
2023-05-14T19:53:30.635Z,81.30
2023-05-14T19:56:16.628Z,81.60
2023-05-14T19:59:02.413Z,81.60
2023-05-14T20:01:50.334Z,81.70
2023-05-14T20:04:35.762Z,82.10
2023-05-14T20:07:21.530Z,82.20
2023-05-14T20:10:08.008Z,82.40
2023-05-14T20:12:53.612Z,82.50
2023-05-14T20:15:40.184Z,82.70
2023-05-14T20:18:26.195Z,82.90
2023-05-14T20:21:12.025Z,83.40
2023-05-14T20:23:57.677Z,83.60
2023-05-14T20:26:45.738Z,83.90
2023-05-14T20:29:31.272Z,84.40
2023-05-14T20:32:16.555Z,84.60
2023-05-14T20:35:02.361Z,84.80
2023-05-14T20:37:49.613Z,85.00
2023-05-14T20:40:35.139Z,85.60
2023-05-14T20:43:25.180Z,85.90
2023-05-14T20:46:13.480Z,86.40
2023-05-14T20:49:00.881Z,86.90
2023-05-14T20:51:46.241Z,87.20
2023-05-14T20:54:31.822Z,87.90
2023-05-14T20:57:18.976Z,88.10
2023-05-14T21:00:08.018Z,88.60
2023-05-14T21:02:53.975Z,88.60
2023-05-14T21:05:41.528Z,88.60
2023-05-14T21:08:27.500Z,88.80
2023-05-14T21:11:13.016Z,89.10
2023-05-14T21:13:58.596Z,89.30
2023-05-14T21:16:44.269Z,89.70
2023-05-14T21:19:29.872Z,90.20
2023-05-14T21:22:18.272Z,90.20
2023-05-14T21:25:04.193Z,90.30
2023-05-14T21:27:49.586Z,90.50
2023-05-14T21:30:34.975Z,90.50
2023-05-14T21:33:20.834Z,90.50
2023-05-14T21:36:07.526Z,90.90
2023-05-14T21:38:53.926Z,90.80
2023-05-14T21:41:39.452Z,91.00
2023-05-14T21:44:24.553Z,91.20
2023-05-14T21:47:10.220Z,91.50
2023-05-14T21:49:56.129Z,91.80
2023-05-14T21:52:41.471Z,91.70
2023-05-14T21:55:27.841Z,91.70
2023-05-14T21:58:13.754Z,91.80
2023-05-14T22:00:59.154Z,91.80
2023-05-14T22:03:44.574Z,92.10
2023-05-14T22:06:29.955Z,91.80
2023-05-14T22:09:15.437Z,92.00
2023-05-14T22:12:00.978Z,92.20
2023-05-14T22:14:46.477Z,92.20
2023-05-14T22:17:32.824Z,92.30
2023-05-14T22:20:18.274Z,92.50
2023-05-14T22:23:03.628Z,92.60
2023-05-14T22:25:48.958Z,92.60
2023-05-14T22:28:40.018Z,92.60
2023-05-14T22:31:25.483Z,92.90
2023-05-14T22:34:10.936Z,93.10
2023-05-14T22:36:56.265Z,93.20
2023-05-14T22:39:42.407Z,93.40
2023-05-14T22:42:28.645Z,93.40
2023-05-14T22:45:15.638Z,93.40
2023-05-14T22:48:01.200Z,93.30
2023-05-14T22:50:46.649Z,93.40
2023-05-14T22:53:32.117Z,93.40
2023-05-14T22:56:17.740Z,93.50
2023-05-14T22:59:03.268Z,93.60
2023-05-14T23:01:48.828Z,93.60
2023-05-14T23:04:37.004Z,93.60
2023-05-14T23:07:25.631Z,93.70
2023-05-14T23:10:11.344Z,93.90
2023-05-14T23:12:56.996Z,93.60
2023-05-14T23:15:43.728Z,93.80
2023-05-14T23:18:29.174Z,94.00
2023-05-14T23:21:15.282Z,94.10
2023-05-14T23:24:01.071Z,93.90
2023-05-14T23:26:46.222Z,93.90
2023-05-14T23:29:34.488Z,94.00
2023-05-14T23:32:19.714Z,94.00
2023-05-14T23:35:05.720Z,94.00
2023-05-14T23:37:51.938Z,94.10
2023-05-14T23:40:37.783Z,94.30
2023-05-14T23:43:23.601Z,94.30
2023-05-14T23:46:09.111Z,94.60
2023-05-14T23:48:57.011Z,94.30
2023-05-14T23:51:42.334Z,94.50
2023-05-14T23:54:27.696Z,94.60
2023-05-14T23:57:14.621Z,94.70
